Ellenburg Center, New York
Current Conditions -  °F | °C
As of 2:53 AM on Friday 19 Dec 2014 (Local Time) from KPBG Reporting Station
Overcast Overcast  
Wind Chill: 19°   Ceiling: 2400
Heat Index: 28°   Visibility: 10mi
Dew Point: 21°   Wind: 9mph
Humidity: 75%   Direction: 310°NW
Pressure: 29.96"   Gusts: NA
Location:  44.86°N, 73.9°W
Report Text: KPBG 190753Z AUTO 31008KT 10SM OVC024 M02/M06 A2996 RMK AO2 SLP149 T10221061
Loading
Personal Weather Stations






























Interactive Weather Map New forecast layout! Learn more

10-Day Weather Forecast

Advertisements
Track Severe Weather on mobile